sensor_id;sensor_type;location;lat;lon;timestamp;pressure;altitude;pressure_sealevel;temperature;humidity
65054;BME280;51639;47.828;35.038;2024-02-14T00:06:10;99807.94;;;12.92;100.00
65054;BME280;51639;47.828;35.038;2024-02-14T00:21:15;99810.00;;;12.88;100.00
65054;BME280;51639;47.828;35.038;2024-02-14T00:36:17;99811.84;;;12.91;100.00
65054;BME280;51639;47.828;35.038;2024-02-14T00:51:21;99821.88;;;12.94;100.00
65054;BME280;51639;47.828;35.038;2024-02-14T01:06:23;99820.81;;;12.79;100.00
65054;BME280;51639;47.828;35.038;2024-02-14T01:21:26;99824.72;;;12.78;100.00
65054;BME280;51639;47.828;35.038;2024-02-14T01:36:28;99836.44;;;12.53;100.00
65054;BME280;51639;47.828;35.038;2024-02-14T01:51:31;99826.97;;;12.57;100.00
65054;BME280;51639;47.828;35.038;2024-02-14T02:06:33;99832.53;;;12.41;100.00
65054;BME280;51639;47.828;35.038;2024-02-14T02:21:36;99841.16;;;12.02;100.00
65054;BME280;51639;47.828;35.038;2024-02-14T02:36:40;99852.09;;;11.85;100.00
65054;BME280;51639;47.828;35.038;2024-02-14T02:51:42;99863.22;;;11.62;100.00
65054;BME280;51639;47.828;35.038;2024-02-14T03:06:44;99859.78;;;11.45;100.00
65054;BME280;51639;47.828;35.038;2024-02-14T03:21:47;99845.91;;;11.56;100.00
65054;BME280;51639;47.828;35.038;2024-02-14T03:36:49;99849.50;;;11.53;100.00
65054;BME280;51639;47.828;35.038;2024-02-14T03:51:52;99846.03;;;11.65;100.00
65054;BME280;51639;47.828;35.038;2024-02-14T04:06:58;99842.19;;;11.21;100.00
65054;BME280;51639;47.828;35.038;2024-02-14T04:22:03;99887.00;;;10.84;100.00
65054;BME280;51639;47.828;35.038;2024-02-14T04:37:05;99880.44;;;10.98;100.00
65054;BME280;51639;47.828;35.038;2024-02-14T04:52:14;99910.75;;;10.96;100.00
65054;BME280;51639;47.828;35.038;2024-02-14T05:07:18;99925.50;;;10.95;100.00
65054;BME280;51639;47.828;35.038;2024-02-14T05:22:20;99931.44;;;11.06;100.00
65054;BME280;51639;47.828;35.038;2024-02-14T05:37:22;99939.41;;;11.30;100.00
65054;BME280;51639;47.828;35.038;2024-02-14T05:52:24;99955.41;;;12.02;100.00
65054;BME280;51639;47.828;35.038;2024-02-14T06:07:26;99957.22;;;12.97;100.00
65054;BME280;51639;47.828;35.038;2024-02-14T06:22:27;99963.31;;;13.01;100.00
65054;BME280;51639;47.828;35.038;2024-02-14T06:37:30;99966.94;;;13.80;100.00
65054;BME280;51639;47.828;35.038;2024-02-14T06:52:42;99970.91;;;14.84;100.00
65054;BME280;51639;47.828;35.038;2024-02-14T07:07:44;100011.66;;;15.00;100.00
65054;BME280;51639;47.828;35.038;2024-02-14T07:22:46;100023.94;;;14.65;100.00
65054;BME280;51639;47.828;35.038;2024-02-14T07:37:55;100038.44;;;14.31;100.00
65054;BME280;51639;47.828;35.038;2024-02-14T07:52:57;100032.28;;;15.32;100.00
65054;BME280;51639;47.828;35.038;2024-02-14T08:07:59;100030.97;;;15.06;100.00
65054;BME280;51639;47.828;35.038;2024-02-14T08:23:01;100044.44;;;15.41;100.00
65054;BME280;51639;47.828;35.038;2024-02-14T08:38:05;100057.00;;;16.24;100.00
65054;BME280;51639;47.828;35.038;2024-02-14T08:53:08;100065.66;;;16.50;100.00
65054;BME280;51639;47.828;35.038;2024-02-14T09:08:10;100071.28;;;16.10;100.00
65054;BME280;51639;47.828;35.038;2024-02-14T09:23:13;100069.38;;;17.55;100.00
65054;BME280;51639;47.828;35.038;2024-02-14T09:38:22;100051.13;;;17.76;100.00
65054;BME280;51639;47.828;35.038;2024-02-14T09:53:24;100045.47;;;17.79;100.00
65054;BME280;51639;47.828;35.038;2024-02-14T10:08:33;100042.06;;;18.52;100.00
65054;BME280;51639;47.828;35.038;2024-02-14T10:23:39;100031.56;;;20.37;100.00
65054;BME280;51639;47.828;35.038;2024-02-14T10:38:42;100038.19;;;19.23;100.00
65054;BME280;51639;47.828;35.038;2024-02-14T10:53:45;100033.75;;;18.61;100.00
65054;BME280;51639;47.828;35.038;2024-02-14T11:09:00;100032.59;;;19.18;100.00
65054;BME280;51639;47.828;35.038;2024-02-14T11:24:06;100029.13;;;19.37;100.00
65054;BME280;51639;47.828;35.038;2024-02-14T11:39:09;100030.53;;;19.68;100.00
65054;BME280;51639;47.828;35.038;2024-02-14T11:54:13;100027.34;;;19.34;100.00
65054;BME280;51639;47.828;35.038;2024-02-14T12:09:16;100046.09;;;19.71;100.00
65054;BME280;51639;47.828;35.038;2024-02-14T12:24:18;100049.53;;;20.06;100.00
65054;BME280;51639;47.828;35.038;2024-02-14T12:39:20;100055.16;;;20.18;100.00
65054;BME280;51639;47.828;35.038;2024-02-14T12:54:22;100060.06;;;19.88;100.00
65054;BME280;51639;47.828;35.038;2024-02-14T13:09:24;100067.94;;;19.39;100.00
65054;BME280;51639;47.828;35.038;2024-02-14T13:24:28;100094.84;;;19.15;100.00
65054;BME280;51639;47.828;35.038;2024-02-14T13:39:30;100091.66;;;19.02;100.00
65054;BME280;51639;47.828;35.038;2024-02-14T14:36:35;100131.09;;;17.68;100.00
65054;BME280;51639;47.828;35.038;2024-02-14T14:51:39;100133.53;;;17.24;100.00
65054;BME280;51639;47.828;35.038;2024-02-14T15:06:41;100146.44;;;16.91;100.00
65054;BME280;51639;47.828;35.038;2024-02-14T15:21:43;100143.09;;;16.59;100.00
65054;BME280;51639;47.828;35.038;2024-02-14T15:36:45;100155.59;;;16.33;100.00
65054;BME280;51639;47.828;35.038;2024-02-14T15:51:47;100177.69;;;16.29;100.00
65054;BME280;51639;47.828;35.038;2024-02-14T16:06:52;100198.34;;;16.21;100.00
65054;BME280;51639;47.828;35.038;2024-02-14T16:21:54;100205.97;;;16.26;100.00
65054;BME280;51639;47.828;35.038;2024-02-14T16:37:10;100204.56;;;16.03;100.00
65054;BME280;51639;47.828;35.038;2024-02-14T16:52:18;100206.78;;;15.78;100.00
65054;BME280;51639;47.828;35.038;2024-02-14T17:07:20;100192.19;;;15.50;100.00
65054;BME280;51639;47.828;35.038;2024-02-14T17:22:23;100202.94;;;15.44;100.00
65054;BME280;51639;47.828;35.038;2024-02-14T17:37:32;100216.09;;;15.27;100.00
65054;BME280;51639;47.828;35.038;2024-02-14T17:52:38;100212.81;;;15.11;100.00
65054;BME280;51639;47.828;35.038;2024-02-14T18:07:45;100210.38;;;14.91;100.00
65054;BME280;51639;47.828;35.038;2024-02-14T18:22:47;100220.69;;;14.87;100.00
65054;BME280;51639;47.828;35.038;2024-02-14T18:37:52;100223.22;;;15.03;100.00
65054;BME280;51639;47.828;35.038;2024-02-14T18:52:54;100221.41;;;14.65;100.00
65054;BME280;51639;47.828;35.038;2024-02-14T19:07:57;100240.72;;;14.84;100.00
65054;BME280;51639;47.828;35.038;2024-02-14T19:22:59;100257.56;;;15.04;100.00
65054;BME280;51639;47.828;35.038;2024-02-14T19:38:03;100276.13;;;15.09;100.00
65054;BME280;51639;47.828;35.038;2024-02-14T19:53:05;100282.41;;;14.62;100.00
65054;BME280;51639;47.828;35.038;2024-02-14T20:08:09;100292.81;;;14.29;100.00
65054;BME280;51639;47.828;35.038;2024-02-14T20:23:11;100290.19;;;14.26;100.00
65054;BME280;51639;47.828;35.038;2024-02-14T20:38:13;100291.41;;;13.99;100.00
65054;BME280;51639;47.828;35.038;2024-02-14T20:53:15;100298.31;;;13.91;100.00
65054;BME280;51639;47.828;35.038;2024-02-14T21:08:18;100317.41;;;14.04;100.00
65054;BME280;51639;47.828;35.038;2024-02-14T21:23:20;100325.38;;;13.86;100.00
65054;BME280;51639;47.828;35.038;2024-02-14T21:38:23;100346.63;;;13.78;100.00
65054;BME280;51639;47.828;35.038;2024-02-14T21:53:25;100364.34;;;13.45;100.00
65054;BME280;51639;47.828;35.038;2024-02-14T22:08:27;100431.69;;;12.99;100.00
65054;BME280;51639;47.828;35.038;2024-02-14T22:23:33;100430.13;;;12.49;100.00
65054;BME280;51639;47.828;35.038;2024-02-14T22:38:36;100439.00;;;11.98;100.00
65054;BME280;51639;47.828;35.038;2024-02-14T22:53:38;100448.28;;;12.00;100.00
65054;BME280;51639;47.828;35.038;2024-02-14T23:08:44;100451.25;;;12.06;100.00
65054;BME280;51639;47.828;35.038;2024-02-14T23:23:46;100443.16;;;11.39;100.00
65054;BME280;51639;47.828;35.038;2024-02-14T23:38:48;100445.72;;;11.26;100.00
65054;BME280;51639;47.828;35.038;2024-02-14T23:53:53;100437.56;;;11.03;100.00
